Accueil
METAR-TAF:

METAR-TAF

Aéroports :

Michael J. Smith Field

Beaufort, Caroline du Nord, États-Unis

latitude: 34-44-01N, longitude: 076-39-38W, altitude: 3 m

Observation

Le bulletin a été fait il y a 1 heure et 1 minutes, à 14:58 UTC
Vent 9 kt de nord-est avec des rafales jusqu'à 15 kt
Température 12°C
Humidité 71%
Pression 1029 hPa
Visibilité: 16.1 km
Ciel clair

METAR: KMRH 141458Z AUTO 04009G15KT 10SM CLR 12/07 A3038 RMK AO2 SLP288 I1000 I3/// T01170072 50005 $

Heure: 10:59 (15:59 UTC)


TAF: absent

Observations et prévisions météorologiques de plus de 4000 aéroports (messages METAR et TAF).

Les stations disponibles sont représentées par des disques jaunes et rouges sur la carte.

Passer la souris dessus pour voir le nom de la station.

Cliquer dessus pour voir les observations et prévisions météorologiques.

Pour changer de carte: cliquez sur les boutons verts avec une croix noire pour zoomer, sur le bouton vert avec un tiret pour effectuer un zoom arrière, ou sur les flèches vertes pour les cartes adjacentes.


METAR-TAF: